Time;durP1;ratioP1;P1;durP2;ratioP2;P2;SDS_P1;SDS_P2;PMS_P1;PMS_P2;Temp;Humidity;BMP_temperature;BMP_pressure;BME280_temperature;BME280_humidity;BME280_pressure;Samples;Min_cycle;Max_cycle;Signal;HPM_P1;HPM_P2
2022/03/20 00:00:09;;;;;;;32.15;21.30;;;;;;;3.90;56.56;101770.94;4898237;29;20059;-93
2022/03/20 00:02:46;;;;;;;29.48;20.27;;;;;;;3.83;56.50;101753.44;4881278;29;20049;-94
2022/03/20 00:05:17;;;;;;;30.73;19.80;;;;;;;3.83;56.46;101759.53;4901934;29;20052;-93
2022/03/20 00:07:48;;;;;;;30.90;20.75;;;;;;;4.09;56.52;101792.81;4895196;29;20068;-94
2022/03/20 00:10:26;;;;;;;;;;;;;;;;;;;;;
2022/03/20 00:12:53;;;;;;;32.35;20.67;;;;;;;3.84;56.11;101744.69;4880448;29;20098;-94
2022/03/20 00:15:20;;;;;;;30.80;20.88;;;;;;;3.98;55.30;101771.81;4896842;29;20056;-94
2022/03/20 00:17:50;;;;;;;30.25;20.02;;;;;;;4.01;55.05;101763.06;4898399;29;20053;-94
2022/03/20 00:20:17;;;;;;;31.30;20.40;;;;;;;3.95;55.05;101763.06;4881649;29;20052;-94
2022/03/20 00:22:48;;;;;;;29.63;20.02;;;;;;;4.05;55.01;101773.59;4896457;29;20136;-93
2022/03/20 00:25:22;;;;;;;30.42;19.48;;;;;;;3.93;54.52;101734.25;4895593;29;20071;-95
2022/03/20 00:27:57;;;;;;;28.30;19.15;;;;;;;4.02;54.04;101739.50;4896536;29;20075;-94
2022/03/20 00:30:31;;;;;;;;;;;;;;;4.42;54.15;101782.34;4896156;29;20056;-94
2022/03/20 00:33:08;;;;;;;26.90;19.10;;;;;;;4.51;53.70;101781.47;4894976;29;20491;-94
2022/03/20 00:35:46;;;;;;;29.63;19.40;;;;;;;4.21;53.72;101724.66;4894951;29;20362;-95
2022/03/20 00:38:17;;;;;;;29.23;18.75;;;;;;;4.54;52.63;101776.25;4897098;29;20140;-93
2022/03/20 00:40:48;;;;;;;29.88;20.25;;;;;;;4.09;53.41;101706.31;4882252;29;20087;-94
2022/03/20 00:43:20;;;;;;;27.60;19.42;;;;;;;4.40;53.46;101781.50;4894774;29;20087;-93
2022/03/20 00:45:54;;;;;;;28.60;19.50;;;;;;;4.35;53.52;101769.25;4897256;29;20052;-92
2022/03/20 00:48:24;;;;;;;28.02;19.30;;;;;;;3.90;53.78;101708.03;4895308;29;20547;-93
2022/03/20 00:50:58;;;;;;;30.35;19.15;;;;;;;3.93;53.61;101710.66;4892651;29;20518;-94
2022/03/20 00:53:31;;;;;;;32.35;19.40;;;;;;;4.13;53.56;101736.88;4893819;29;20576;-92
2022/03/20 00:56:09;;;;;;;33.35;19.67;;;;;;;4.07;53.35;101726.41;4897769;29;20077;-92
2022/03/20 00:58:37;;;;;;;27.20;18.67;;;;;;;3.96;53.53;101717.63;4881610;29;20175;-93
2022/03/20 01:01:09;;;;;;;29.00;18.52;;;;;;;4.09;53.00;101741.22;4892678;29;20049;-93
2022/03/20 01:03:38;;;;;;;30.23;18.90;;;;;;;3.90;53.38;101715.91;4876845;29;21309;-93
2022/03/20 01:06:14;;;;;;;28.75;19.67;;;;;;;3.68;54.31;101691.41;4895067;29;20411;-93
2022/03/20 01:08:46;;;;;;;29.52;18.52;;;;;;;3.94;53.95;101724.63;4896177;29;20092;-93
2022/03/20 01:11:13;;;;;;;33.70;20.05;;;;;;;3.75;53.71;101684.44;4879184;29;20567;-94
2022/03/20 01:13:41;;;;;;;26.83;18.83;;;;;;;4.06;53.52;101738.63;4895590;29;20053;-94
2022/03/20 01:16:18;;;;;;;33.03;20.13;;;;;;;3.94;54.15;101709.75;4896271;29;20463;-94
2022/03/20 01:18:49;;;;;;;31.50;19.20;;;;;;;4.04;53.40;101722.03;4898106;29;20139;-93
2022/03/20 01:21:30;;;;;;;27.90;18.75;;;;;;;3.94;53.39;101701.91;4893342;29;20145;-93
2022/03/20 01:24:01;;;;;;;34.55;19.15;;;;;;;3.91;53.15;101698.44;4893462;29;20139;-93
2022/03/20 01:26:31;;;;;;;27.13;18.25;;;;;;;3.73;53.56;101687.06;4898751;29;20048;-94
2022/03/20 01:29:00;;;;;;;27.75;18.50;;;;;;;3.62;53.42;101675.66;4894736;29;20049;-94
2022/03/20 01:31:32;;;;;;;26.77;18.70;;;;;;;3.77;53.66;101701.91;4890661;29;20053;-92
2022/03/20 01:34:06;;;;;;;29.95;18.90;;;;;;;3.81;53.33;101698.41;4890493;29;20051;-93
2022/03/20 01:36:33;;;;;;;28.92;17.90;;;;;;;4.02;53.00;101723.78;4898694;29;20044;-94
2022/03/20 01:39:00;;;;;;;29.35;18.65;;;;;;;3.73;52.46;101666.09;4904701;29;20056;-94
2022/03/20 01:41:27;;;;;;;31.15;19.58;;;;;;;3.86;52.75;101688.81;4884868;29;20053;-93
2022/03/20 01:44:04;;;;;;;30.02;18.90;;;;;;;4.02;53.09;101704.53;4891056;29;20055;-94
2022/03/20 01:46:32;;;;;;;31.90;19.30;;;;;;;3.76;53.11;101666.09;4894204;29;20044;-93
2022/03/20 01:49:03;;;;;;;24.30;14.00;;;;;;;3.75;53.25;101650.38;4895382;29;20508;-93
2022/03/20 01:54:26;;;;;;;32.20;18.88;;;;;;;4.05;52.88;101702.81;4901211;29;20559;-93
2022/03/20 01:56:59;;;;;;;;;;;;;;;4.01;53.52;101706.28;4903139;29;20044;-94
2022/03/20 01:59:39;;;;;;;28.90;18.60;;;;;;;3.92;53.24;101700.19;4908286;29;19934;-93
2022/03/20 02:02:09;;;;;;;30.90;19.10;;;;;;;3.76;53.66;101671.34;4894607;29;20147;-92
2022/03/20 02:04:38;;;;;;;32.25;19.60;;;;;;;3.62;54.11;101654.69;4892206;29;20098;-93
2022/03/20 02:07:07;;;;;;;29.33;19.50;;;;;;;3.79;53.81;101691.41;4879995;29;20063;-93
2022/03/20 02:09:38;;;;;;;22.48;14.63;;;;;;;3.62;54.48;101670.41;4866124;29;20087;-93
2022/03/20 02:12:06;;;;;;;30.67;18.85;;;;;;;3.62;54.77;101665.19;4896551;29;20067;-93
2022/03/20 02:14:36;;;;;;;28.77;19.25;;;;;;;3.74;54.31;101686.19;4892309;29;20063;-93
2022/03/20 02:17:12;;;;;;;33.30;19.88;;;;;;;3.54;54.32;101651.22;4895219;29;20053;-93
2022/03/20 02:19:45;;;;;;;27.00;18.45;;;;;;;3.47;54.72;101652.94;4894755;29;20056;-92
2022/03/20 02:22:14;;;;;;;30.48;19.02;;;;;;;3.41;54.57;101633.72;4893471;29;20048;-93
2022/03/20 02:24:49;;;;;;;30.02;19.83;;;;;;;3.52;53.92;101650.34;4895554;29;20056;-93
2022/03/20 02:27:23;;;;;;;27.67;18.17;;;;;;;3.33;54.87;101628.47;4930179;29;20425;-93
2022/03/20 02:29:56;;;;;;;28.58;19.15;;;;;;;3.55;54.47;101660.81;4948030;29;20055;-93
2022/03/20 02:32:30;;;;;;;31.70;19.73;;;;;;;3.27;54.46;101609.28;4939602;29;20056;-93
2022/03/20 02:35:04;;;;;;;31.35;19.25;;;;;;;3.48;54.49;101640.72;4937190;29;20051;-93
2022/03/20 02:37:38;;;;;;;31.20;19.33;;;;;;;3.38;54.13;101631.09;4940009;29;20051;-92
2022/03/20 02:40:20;;;;;;;31.17;20.13;;;;;;;3.22;54.50;101600.53;4941519;29;20062;-93
2022/03/20 02:42:49;;;;;;;34.63;20.05;;;;;;;3.26;54.37;101608.41;4933013;29;20597;-93
2022/03/20 02:45:21;;;;;;;30.83;19.20;;;;;;;3.27;54.18;101611.91;4922973;29;20044;-93
2022/03/20 02:47:51;;;;;;;33.40;20.13;;;;;;;3.23;54.98;101599.66;4942967;29;20054;-94
2022/03/20 02:50:24;;;;;;;35.33;20.38;;;;;;;3.24;55.17;101607.53;4938429;29;20055;-93
2022/03/20 02:52:58;;;;;;;32.83;19.83;;;;;;;3.25;54.60;101598.78;4939334;29;20103;-94
2022/03/20 02:55:36;;;;;;;35.47;20.02;;;;;;;3.41;54.40;101624.13;4939143;29;20079;-94
2022/03/20 02:58:25;;;;;;;30.17;19.67;;;;;;;3.42;53.85;101630.25;4940500;29;20060;-95
2022/03/20 03:01:00;;;;;;;34.88;20.02;;;;;;;3.29;54.26;101591.84;4936926;29;20058;-93
2022/03/20 03:03:27;;;;;;;33.13;20.02;;;;;;;3.54;54.04;101643.34;4935569;29;20044;-94
2022/03/20 03:05:56;;;;;;;30.95;20.52;;;;;;;3.34;53.36;101603.16;4932027;29;20039;-94
2022/03/20 03:11:15;;;;;;;32.67;21.75;;;;;;;3.57;54.46;101645.13;4931299;29;20048;-94
2022/03/20 03:13:42;;;;;;;34.95;21.15;;;;;;;3.59;54.24;101659.09;4932627;29;20052;-95
2022/03/20 03:16:12;;;;;;;31.75;20.20;;;;;;;3.21;54.63;101593.53;4933601;29;20043;-92
2022/03/20 03:18:49;;;;;;;34.05;20.92;;;;;;;3.50;54.70;101644.22;4934053;29;20079;-93
2022/03/20 03:21:17;;;;;;;32.47;20.95;;;;;;;3.57;54.63;101652.97;4930272;29;20043;-92
2022/03/20 03:23:47;;;;;;;34.28;21.52;;;;;;;3.30;54.45;101606.66;4931411;29;20054;-92
2022/03/20 03:26:14;;;;;;;33.60;20.38;;;;;;;3.35;54.75;101616.25;4934868;29;20076;-92
2022/03/20 03:28:44;;;;;;;37.75;21.92;;;;;;;3.20;54.90;101594.41;4934249;29;20047;-92
2022/03/20 03:31:11;;;;;;;31.30;19.67;;;;;;;3.37;55.58;101626.75;4934430;29;20051;-93
2022/03/20 03:35:41;;;;;;;37.67;20.88;;;;;;;3.11;55.96;101603.13;4915633;29;20134;-94
2022/03/20 03:36:32;;;;;;;38.28;21.55;;;;;;;3.33;55.31;101640.69;4920740;29;20083;-93
2022/03/20 03:39:02;;;;;;;34.85;20.73;;;;;;;3.11;56.13;101604.00;4938769;29;20047;-92
2022/03/20 03:41:29;;;;;;;35.15;21.83;;;;;;;2.98;56.31;101578.66;4918313;29;20075;-92
2022/03/20 03:44:11;;;;;;;33.90;21.52;;;;;;;2.91;55.77;101570.78;4931485;29;20150;-93
2022/03/20 03:46:39;;;;;;;34.17;22.15;;;;;;;3.06;56.92;101608.34;4934473;29;20501;-92
2022/03/20 03:49:06;;;;;;;38.80;22.65;;;;;;;3.08;57.09;101603.13;4938501;29;20047;-93
2022/03/20 03:51:34;;;;;;;35.30;22.20;;;;;;;3.27;57.13;101627.59;4939824;29;20070;-92
2022/03/20 03:54:18;;;;;;;34.72;21.67;;;;;;;3.14;56.76;101597.91;4931087;29;20104;-93
2022/03/20 03:56:46;;;;;;;40.42;22.50;;;;;;;2.91;56.95;101568.16;4920245;29;20047;-93
2022/03/20 03:59:19;;;;;;;33.58;21.55;;;;;;;2.95;57.10;101560.34;4936290;29;20251;-93
2022/03/20 04:01:47;;;;;;;35.88;22.33;;;;;;;3.07;57.17;101591.78;4935456;29;20059;-92
2022/03/20 04:04:14;;;;;;;36.58;22.23;;;;;;;3.13;57.35;101589.19;4936294;29;20048;-94
2022/03/20 04:06:43;;;;;;;37.28;22.58;;;;;;;3.11;57.12;101583.06;4938549;29;20063;-93
2022/03/20 04:09:11;;;;;;;37.00;23.10;;;;;;;3.25;57.04;101600.53;4937666;29;20394;-93
2022/03/20 04:11:41;;;;;;;41.35;23.52;;;;;;;3.04;57.38;101565.59;4939304;29;20110;-92
2022/03/20 04:14:10;;;;;;;39.83;22.80;;;;;;;3.15;57.46;101571.72;4929379;29;20052;-93
2022/03/20 04:16:39;;;;;;;37.42;22.48;;;;;;;3.08;57.01;101554.25;4940031;29;20495;-92
2022/03/20 04:19:08;;;;;;;37.13;23.48;;;;;;;3.24;57.45;101581.34;4932053;29;20076;-92
2022/03/20 04:21:37;;;;;;;38.20;22.55;;;;;;;3.30;56.80;101588.34;4933528;29;20055;-92
2022/03/20 04:24:07;;;;;;;38.15;23.15;;;;;;;3.18;56.60;101560.38;4931574;29;20135;-92
2022/03/20 04:26:44;;;;;;;41.67;25.13;;;;;;;3.34;56.26;101574.38;4930479;29;20619;-92
2022/03/20 04:29:12;;;;;;;37.40;23.83;;;;;;;3.39;56.12;101570.00;4937308;29;20072;-92
2022/03/20 04:31:40;;;;;;;41.45;23.70;;;;;;;3.55;56.55;101584.88;4936236;29;20060;-91
2022/03/20 04:34:29;;;;;;;38.03;23.65;;;;;;;3.74;56.28;101599.72;4936766;29;20052;-92
2022/03/20 04:37:03;;;;;;;42.45;25.17;;;;;;;3.69;56.06;101564.78;4929136;29;20056;-92
2022/03/20 04:39:33;;;;;;;41.83;24.80;;;;;;;3.91;55.10;101570.91;4943064;29;20135;-93
2022/03/20 04:42:02;;;;;;;46.65;25.90;;;;;;;4.03;54.79;101541.19;4935758;29;20560;-93
2022/03/20 04:44:34;;;;;;;38.67;24.48;;;;;;;3.88;54.83;101489.66;4905364;29;20123;-92
2022/03/20 04:47:04;;;;;;;40.13;24.63;;;;;;;4.03;54.49;101525.44;4940984;29;20189;-92
2022/03/20 05:00:44;;;;;;;42.97;25.60;;;;;;;3.66;55.41;101541.22;4959109;29;20487;-93
2022/03/20 05:03:13;;;;;;;41.50;25.42;;;;;;;4.00;55.83;101619.78;4955616;29;20078;-92
2022/03/20 05:05:42;;;;;;;44.17;26.00;;;;;;;3.66;55.93;101556.06;4957130;29;20051;-94
2022/03/20 05:08:09;;;;;;;40.80;25.85;;;;;;;3.85;56.15;101586.63;4954246;29;20070;-91
2022/03/20 05:13:35;;;;;;;44.88;26.77;;;;;;;3.82;56.56;101587.47;4951735;29;20101;-93
2022/03/20 05:16:08;;;;;;;41.28;25.80;;;;;;;3.76;57.09;101568.28;4953636;29;20146;-92
2022/03/20 05:18:45;;;;;;;44.28;26.55;;;;;;;3.87;56.62;101595.34;4946715;29;20050;-92
2022/03/20 05:21:12;;;;;;;40.17;25.70;;;;;;;4.00;56.58;101622.41;4950108;29;20059;-93
2022/03/20 05:23:44;;;;;;;44.17;26.95;;;;;;;3.86;56.99;101590.97;4955637;29;20051;-91
2022/03/20 05:26:11;;;;;;;42.15;26.65;;;;;;;3.71;57.22;101562.16;4954243;29;20657;-92
2022/03/20 05:28:39;;;;;;;44.13;27.20;;;;;;;3.86;57.20;101594.47;4952443;29;20075;-93
2022/03/20 05:31:05;;;;;;;45.10;27.48;;;;;;;3.72;57.81;101564.78;4932261;29;20031;-94
2022/03/20 05:33:33;;;;;;;42.65;27.85;;;;;;;3.97;57.40;101604.06;4950341;29;20554;-93
2022/03/20 05:36:00;;;;;;;40.58;26.77;;;;;;;3.94;57.21;101598.81;4955901;28;20055;-94
2022/03/20 05:38:30;;;;;;;42.95;26.98;;;;;;;3.90;58.05;101592.75;4950704;28;20474;-94
2022/03/20 05:43:46;;;;;;;41.88;27.73;;;;;;;4.04;57.89;101587.47;4945829;29;20114;-94
2022/03/20 05:46:15;;;;;;;47.00;28.13;;;;;;;4.05;58.23;101583.97;4953103;28;20435;-94
2022/03/20 05:48:42;;;;;;;49.05;28.70;;;;;;;4.08;57.74;101591.84;4948288;28;20625;-93
2022/03/20 05:51:09;;;;;;;49.42;28.65;;;;;;;4.16;57.20;101587.44;4947132;29;20114;-93
2022/03/20 05:53:36;;;;;;;47.75;27.55;;;;;;;4.01;57.89;101564.75;4951736;29;20110;-91
2022/03/20 05:58:57;;;;;;;45.17;27.05;;;;;;;4.25;57.20;101590.03;4958106;28;20050;-94
2022/03/20 06:01:36;;;;;;;;;;;;;;;;;;;;;
2022/03/20 06:04:06;;;;;;;46.05;27.95;;;;;;;4.21;57.45;101560.38;4956041;29;20051;-93
2022/03/20 06:06:53;;;;;;;46.28;28.42;;;;;;;4.26;57.45;101567.31;4945762;29;20689;-93
2022/03/20 06:09:21;;;;;;;46.67;28.30;;;;;;;4.35;57.81;101576.06;4956043;28;20051;-94
2022/03/20 06:11:49;;;;;;;42.20;28.00;;;;;;;4.27;57.07;101555.97;4957527;29;20062;-93
2022/03/20 06:14:18;;;;;;;46.22;27.90;;;;;;;4.31;56.83;101553.34;4954531;28;20059;-92
2022/03/20 06:16:48;;;;;;;47.40;28.85;;;;;;;4.69;56.71;101608.31;4955963;29;20062;-93
2022/03/20 06:19:16;;;;;;;45.22;28.73;;;;;;;4.56;56.82;101575.97;4955280;29;20061;-92
2022/03/20 06:21:47;;;;;;;44.78;27.98;;;;;;;4.73;56.43;101588.16;4952737;29;20528;-94
2022/03/20 06:24:14;;;;;;;47.63;28.88;;;;;;;4.93;56.01;101617.81;4950829;29;20051;-93
2022/03/20 06:26:44;;;;;;;45.00;29.23;;;;;;;4.78;55.27;101583.75;4953693;29;20073;-93
2022/03/20 06:29:13;;;;;;;44.67;28.08;;;;;;;5.07;55.49;101626.50;4959198;29;20139;-94
2022/03/20 06:31:41;;;;;;;47.22;29.42;;;;;;;4.94;55.20;101606.44;4954420;29;20550;-93
2022/03/20 06:34:08;;;;;;;48.92;29.73;;;;;;;5.07;55.45;101618.63;4948800;28;20102;-94
2022/03/20 06:36:35;;;;;;;44.95;28.27;;;;;;;5.05;55.41;101619.50;4953897;29;20047;-94
2022/03/20 06:39:06;;;;;;;44.03;28.65;;;;;;;5.11;55.01;101628.22;4953306;29;20043;-94
2022/03/20 06:41:35;;;;;;;49.88;29.15;;;;;;;5.29;55.64;101653.53;4951669;29;20415;-93
2022/03/20 06:44:05;;;;;;;43.80;29.20;;;;;;;5.18;55.48;101622.09;4950917;28;20081;-94
2022/03/20 06:46:37;;;;;;;49.83;30.20;;;;;;;5.05;55.18;101594.13;4950557;29;20463;-93
2022/03/20 06:49:08;;;;;;;45.65;29.35;;;;;;;5.32;55.13;101629.00;4949226;29;20130;-93
2022/03/20 06:51:37;;;;;;;45.15;28.88;;;;;;;5.19;54.69;101596.69;4953206;28;20392;-94
2022/03/20 06:54:07;;;;;;;44.92;28.55;;;;;;;5.22;54.84;101589.66;4950542;29;20182;-92
2022/03/20 06:56:36;;;;;;;45.15;28.50;;;;;;;5.66;54.43;101646.31;4953496;29;20082;-95
2022/03/20 06:59:03;;;;;;;45.00;28.33;;;;;;;5.64;54.45;101630.56;4941805;29;20051;-94
2022/03/20 07:01:31;;;;;;;46.38;28.05;;;;;;;5.44;53.94;101594.78;4949350;29;20533;-94
2022/03/20 07:04:01;;;;;;;48.42;29.00;;;;;;;5.70;54.29;101618.22;4946832;29;20110;-94
2022/03/20 07:06:31;;;;;;;47.63;29.35;;;;;;;5.46;53.78;101587.75;4953615;28;20493;-94
2022/03/20 07:09:00;;;;;;;44.63;28.70;;;;;;;5.53;53.92;101600.81;4953975;29;20700;-93
2022/03/20 07:11:32;;;;;;;45.70;28.02;;;;;;;5.61;54.00;101611.31;4954392;29;20051;-93
2022/03/20 07:14:01;;;;;;;50.00;29.50;;;;;;;5.72;53.75;101619.09;4953371;29;20047;-93
2022/03/20 07:16:33;;;;;;;44.00;28.67;;;;;;;5.88;53.44;101639.13;4952324;29;20125;-94
2022/03/20 07:19:02;;;;;;;45.38;29.13;;;;;;;5.90;53.56;101619.84;4948613;29;20047;-93
2022/03/20 07:21:32;;;;;;;47.53;30.50;;;;;;;6.11;53.22;101623.19;4948899;28;20071;-93
2022/03/20 07:24:04;;;;;;;47.85;29.92;;;;;;;6.66;52.77;101658.56;4956557;29;20510;-93
2022/03/20 07:29:30;;;;;;;46.85;29.95;;;;;;;6.96;50.58;101585.38;4952059;29;20052;-92
2022/03/20 07:32:09;;;;;;;43.83;29.45;;;;;;;7.61;49.58;101644.19;4957874;29;20062;-93
2022/03/20 07:34:39;;;;;;;45.22;29.65;;;;;;;7.80;48.38;101635.09;4957168;28;20491;-94
2022/03/20 07:37:08;;;;;;;45.05;29.08;;;;;;;7.83;47.35;101603.41;4945782;28;20067;-93
2022/03/20 07:39:36;;;;;;;47.55;31.55;;;;;;;7.79;46.89;101578.00;4953937;29;20403;-94
2022/03/20 07:42:08;;;;;;;45.05;28.25;;;;;;;7.80;46.50;101581.50;4964278;28;20051;-93
2022/03/20 07:44:39;;;;;;;46.92;28.73;;;;;;;7.97;46.62;101595.28;4954898;29;20130;-96
2022/03/20 07:47:26;;;;;;;47.45;29.15;;;;;;;7.89;46.05;101562.88;4957691;28;20091;-95
2022/03/20 07:50:09;;;;;;;43.53;29.67;;;;;;;8.01;45.63;101570.59;4948287;29;20063;-95
2022/03/20 07:52:39;;;;;;;43.47;27.57;;;;;;;8.16;45.20;101587.91;4938635;29;20047;-95
2022/03/20 07:55:08;;;;;;;46.25;29.48;;;;;;;8.22;45.29;101591.28;4930879;29;20495;-96
2022/03/20 07:57:52;;;;;;;42.55;27.48;;;;;;;8.37;44.68;101592.81;4934935;29;20058;-93
2022/03/20 08:00:23;;;;;;;45.70;29.48;;;;;;;8.88;44.54;101654.31;4938727;29;20048;-95
2022/03/20 08:03:05;;;;;;;44.35;28.45;;;;;;;8.84;44.57;101622.69;4939267;29;20124;-95
2022/03/20 08:05:45;;;;;;;42.15;28.23;;;;;;;8.88;43.62;101632.31;4940219;29;20078;-95
2022/03/20 08:08:24;;;;;;;41.35;28.15;;;;;;;8.64;43.70;101594.94;4935810;29;20065;-96
2022/03/20 08:11:08;;;;;;;40.28;26.50;;;;;;;8.88;43.22;101629.66;4941757;29;20130;-96
2022/03/20 08:13:50;;;;;;;;;;;;;;;;;;;;;
2022/03/20 08:16:36;;;;;;;;;;;;;;;9.49;42.80;101648.59;4945428;29;20115;-95
2022/03/20 08:19:21;;;;;;;40.05;27.02;;;;;;;9.39;42.20;101596.84;4941282;29;19933;-94
2022/03/20 08:21:49;;;;;;;39.95;27.13;;;;;;;9.54;42.08;101618.53;4920268;29;20077;-93
2022/03/20 08:24:44;;;;;;;39.50;27.85;;;;;;;9.49;42.20;101605.41;4951360;29;20047;-95
2022/03/20 08:27:15;;;;;;;43.95;27.90;;;;;;;9.37;42.21;101585.41;4947989;29;20052;-93
2022/03/20 08:29:48;;;;;;;40.15;26.98;;;;;;;9.52;42.47;101610.63;4949292;29;20051;-95
2022/03/20 08:32:35;;;;;;;;;;;;;;;;;;;;;
2022/03/20 08:35:26;;;;;;;41.13;27.15;;;;;;;9.76;41.68;101593.28;4949794;29;20051;-96
2022/03/20 08:38:25;;;;;;;41.50;27.88;;;;;;;9.95;41.52;101625.47;4951430;29;20043;-96
2022/03/20 08:41:39;;;;;;;43.67;26.67;;;;;;;10.26;41.74;101644.13;4939676;29;20142;-94
2022/03/20 08:44:15;;;;;;;42.75;27.80;;;;;;;10.35;40.25;101630.66;4939163;29;20052;-96
2022/03/20 08:46:53;;;;;;;40.53;27.73;;;;;;;10.64;40.54;101659.00;4932880;29;20056;-96
2022/03/20 08:49:39;;;;;;;40.72;27.27;;;;;;;10.61;41.35;101662.59;4936202;29;20226;-96
2022/03/20 08:52:46;;;;;;;40.67;25.70;;;;;;;10.59;40.50;101627.34;4935954;29;20411;-96
2022/03/20 08:55:26;;;;;;;40.35;27.33;;;;;;;10.69;40.25;101631.50;4937493;29;20084;-96
2022/03/20 08:57:57;;;;;;;39.33;27.03;;;;;;;10.70;39.76;101617.34;4935839;29;20558;-95
2022/03/20 09:01:09;;;;;;;41.22;27.05;;;;;;;10.86;39.99;101621.25;4940652;29;20530;-96
2022/03/20 09:03:55;;;;;;;;;;;;;;;11.48;39.38;101658.31;4937793;29;20043;-95
2022/03/20 09:06:32;;;;;;;36.67;26.17;;;;;;;11.71;38.86;101627.53;4935936;29;19923;-95
2022/03/20 09:09:20;;;;;;;38.60;26.58;;;;;;;12.14;37.15;101609.28;4933007;29;20060;-95
2022/03/20 09:12:04;;;;;;;38.30;26.65;;;;;;;12.33;36.38;101604.22;4931359;29;20055;-95
2022/03/20 09:14:48;;;;;;;;;;;;;;;;;;;;;
2022/03/20 09:20:48;;;;;;;38.20;26.95;;;;;;;13.53;34.66;101628.13;4930922;29;20059;-95
2022/03/20 09:24:19;;;;;;;39.10;28.38;;;;;;;13.67;33.91;101600.03;4942633;29;20065;-96
2022/03/20 09:26:56;;;;;;;41.38;26.95;;;;;;;13.53;34.11;101613.03;4947437;29;20052;-96
2022/03/20 09:29:42;;;;;;;38.20;27.35;;;;;;;13.75;34.41;101654.75;4921833;29;20070;-95
2022/03/20 09:32:23;;;;;;;36.38;27.33;;;;;;;13.89;34.26;101647.06;4946011;29;20052;-94
2022/03/20 09:35:08;;;;;;;35.10;25.70;;;;;;;13.68;34.83;101622.19;4930679;29;20039;-95
2022/03/20 09:37:39;;;;;;;36.30;26.15;;;;;;;13.98;34.01;101625.41;4940555;29;20044;-96
2022/03/20 09:40:22;;;;;;;37.17;26.75;;;;;;;13.94;33.96;101597.16;4935675;29;20055;-95
2022/03/20 09:43:02;;;;;;;34.20;24.92;;;;;;;14.35;34.09;101612.22;4933335;29;20094;-94
2022/03/20 09:45:46;;;;;;;34.65;25.85;;;;;;;15.05;32.33;101603.78;4924021;29;20487;-96
2022/03/20 09:48:56;;;;;;;35.85;25.48;;;;;;;15.86;31.56;101625.75;4935556;29;20514;-95
2022/03/20 09:51:50;;;;;;;34.42;24.98;;;;;;;16.17;30.98;101604.59;4952706;29;20058;-94
2022/03/20 09:54:38;;;;;;;37.78;27.45;;;;;;;16.18;30.45;101627.69;4963844;28;20074;-95
2022/03/20 09:57:35;;;;;;;35.45;26.77;;;;;;;16.27;30.96;101634.38;4951303;29;20043;-95
2022/03/20 10:00:20;;;;;;;34.40;26.50;;;;;;;16.27;30.65;101623.66;4951168;29;20135;-92
2022/03/20 10:03:20;;;;;;;33.80;26.55;;;;;;;16.47;29.78;101611.03;4934403;28;20055;-95
2022/03/20 10:06:16;;;;;;;35.83;25.60;;;;;;;16.88;30.08;101671.31;4955689;29;20082;-94
2022/03/20 10:09:01;;;;;;;34.80;25.92;;;;;;;16.30;30.50;101659.13;4952969;29;20086;-95
2022/03/20 10:12:00;;;;;;;38.05;28.10;;;;;;;15.15;32.22;101635.38;4956137;29;20384;-95
2022/03/20 10:14:45;;;;;;;35.70;26.13;;;;;;;15.54;32.24;101624.63;4958269;28;20050;-95
2022/03/20 10:17:28;;;;;;;36.22;26.38;;;;;;;15.42;31.63;101620.75;4958260;29;20126;-94
2022/03/20 10:20:27;;;;;;;;;;;;;;;;;;;;;
2022/03/20 10:23:12;;;;;;;;;;;;;;;;;;;;;
2022/03/20 10:26:22;;;;;;;34.45;25.33;;;;;;;16.55;30.83;101623.09;4945797;29;20050;-94
2022/03/20 10:29:51;;;;;;;35.72;27.05;;;;;;;17.40;30.35;101648.81;4944377;29;20091;-96
2022/03/20 10:32:53;;;;;;;34.03;25.45;;;;;;;18.09;28.72;101643.13;4964675;29;20074;-95
2022/03/20 10:39:59;;;;;;;;;;;;;;;;;;;;;
2022/03/20 10:46:35;;;;;;;32.15;25.35;;;;;;;20.07;25.95;101616.34;4959477;29;20063;-95
2022/03/20 10:50:30;;;;;;;30.55;24.83;;;;;;;20.42;25.29;101598.72;4967640;29;20051;-94
2022/03/20 10:54:33;;;;;;;;;;;;;;;;;;;;;
2022/03/20 10:57:39;;;;;;;28.13;23.33;;;;;;;21.93;23.74;101623.66;4937177;29;20077;-95
2022/03/20 11:01:06;;;;;;;;;;;;;;;;;;;;;
2022/03/20 11:04:08;;;;;;;33.33;24.75;;;;;;;22.20;23.31;101609.09;4973093;29;20058;-96
2022/03/20 11:06:59;;;;;;;29.75;24.55;;;;;;;22.55;22.96;101628.81;4967649;29;20047;-94
2022/03/20 11:09:44;;;;;;;30.58;24.33;;;;;;;21.70;23.78;101584.09;4952554;29;20051;-95
2022/03/20 11:12:36;;;;;;;33.75;25.60;;;;;;;21.28;24.62;101629.38;4961106;28;20055;-94
2022/03/20 11:15:37;;;;;;;28.13;23.17;;;;;;;21.19;24.67;101581.56;4959563;28;20066;-95
2022/03/20 11:18:20;;;;;;;31.02;24.02;;;;;;;21.88;24.39;101606.97;4966597;28;20053;-95
2022/03/20 11:21:08;;;;;;;30.40;24.80;;;;;;;21.58;24.33;101620.88;4971376;29;20051;-93
2022/03/20 11:24:02;;;;;;;30.20;25.27;;;;;;;21.67;24.54;101632.84;4968239;29;20062;-93
2022/03/20 11:26:50;;;;;;;29.55;25.33;;;;;;;21.33;25.18;101619.13;4961309;29;20038;-94
2022/03/20 11:29:50;;;;;;;;;;;;;;;20.05;27.46;101651.41;4974654;29;20058;-93
2022/03/20 11:32:30;;;;;;;32.15;25.50;;;;;;;19.44;28.76;101620.47;4966795;29;19982;-94
2022/03/20 11:35:16;;;;;;;29.83;24.83;;;;;;;19.58;28.49;101650.03;4950516;29;20063;-93
2022/03/20 11:37:54;;;;;;;33.30;25.05;;;;;;;18.34;29.89;101583.53;4950884;29;20047;-95
2022/03/20 11:41:07;;;;;;;33.95;25.42;;;;;;;17.93;30.46;101615.47;4957060;29;20055;-93
2022/03/20 11:43:47;;;;;;;31.27;25.40;;;;;;;17.87;30.80;101654.22;4968738;29;20062;-94
2022/03/20 11:46:34;;;;;;;32.47;25.02;;;;;;;17.20;32.12;101619.59;4963554;29;20155;-94
2022/03/20 11:49:20;;;;;;;33.20;25.40;;;;;;;17.21;32.27;101655.28;4945562;29;20059;-94
2022/03/20 11:52:08;;;;;;;34.55;23.92;;;;;;;17.15;34.55;101652.00;4950110;28;20055;-94
2022/03/20 11:54:47;;;;;;;35.47;25.02;;;;;;;16.76;35.88;101662.13;4943646;29;20051;-93
2022/03/20 11:57:31;;;;;;;32.08;23.45;;;;;;;16.57;36.71;101640.81;4939150;29;20044;-94
2022/03/20 12:00:13;;;;;;;33.85;23.42;;;;;;;17.05;36.13;101604.38;4942121;29;20047;-95
2022/03/20 12:02:50;;;;;;;29.92;23.58;;;;;;;17.40;35.78;101666.69;4929988;29;20043;-95
2022/03/20 12:05:56;;;;;;;31.80;22.88;;;;;;;16.14;38.38;101667.06;4945584;29;20169;-94
2022/03/20 12:08:37;;;;;;;30.40;21.10;;;;;;;15.71;39.60;101665.63;4949330;29;20044;-94
2022/03/20 12:11:16;;;;;;;26.13;20.70;;;;;;;15.51;40.23;101663.00;4952631;29;20048;-94
2022/03/20 12:14:12;;;;;;;31.00;20.40;;;;;;;14.51;41.56;101593.81;4942698;29;20054;-95
2022/03/20 12:16:58;;;;;;;27.98;20.33;;;;;;;14.17;43.23;101641.47;4942051;29;20052;-94
2022/03/20 12:19:53;;;;;;;;;;;;;;;14.04;43.53;101654.44;4942843;29;20047;-95
2022/03/20 12:22:49;;;;;;;30.08;20.00;;;;;;;13.86;44.40;101652.50;4951751;29;19947;-96
2022/03/20 12:25:58;;;;;;;27.75;18.48;;;;;;;13.57;44.12;101596.00;4950870;29;20183;-95
2022/03/20 12:29:45;;;;;;;;;;;;;;;;;;;;;
2022/03/20 12:35:41;;;;;;;27.50;18.92;;;;;;;14.60;43.52;101633.41;4991915;23;20037;-94
2022/03/20 12:42:29;;;;;;;28.45;20.00;;;;;;;14.98;42.38;101586.31;4961310;29;20057;-94
2022/03/20 12:45:21;;;;;;;28.75;19.13;;;;;;;15.25;41.03;101583.31;4939030;29;20515;-94
2022/03/20 12:48:16;;;;;;;31.52;22.40;;;;;;;15.31;39.96;101556.31;4967165;28;20087;-95
2022/03/20 12:51:10;;;;;;;30.65;21.92;;;;;;;15.72;39.82;101592.59;4957631;29;20423;-94
2022/03/20 12:53:55;;;;;;;30.45;21.35;;;;;;;15.71;38.83;101548.13;4962420;28;20055;-94
2022/03/20 12:57:04;;;;;;;31.58;22.08;;;;;;;16.83;37.55;101602.03;4963887;29;20059;-94
2022/03/20 12:59:50;;;;;;;30.17;20.88;;;;;;;18.02;34.58;101609.56;4960156;28;20082;-93
2022/03/20 13:02:34;;;;;;;29.33;19.73;;;;;;;19.44;31.93;101552.44;4962518;28;20043;-94
2022/03/20 13:05:31;;;;;;;29.45;22.98;;;;;;;20.34;30.23;101557.97;4962082;29;20047;-95
2022/03/20 13:08:51;;;;;;;30.17;21.10;;;;;;;21.83;28.34;101582.19;4967871;29;20047;-95
2022/03/20 13:11:59;;;;;;;26.13;20.42;;;;;;;22.70;26.66;101546.63;4959104;29;20054;-94